sensor_id;sensor_type;location;lat;lon;timestamp;P1;durP1;ratioP1;P2;durP2;ratioP2
57443;SDS011;43289;52.962;6.196;2022-08-03T00:00:04;6.00;;;3.03;;
57443;SDS011;43289;52.962;6.196;2022-08-03T00:02:30;8.43;;;3.42;;
57443;SDS011;43289;52.962;6.196;2022-08-03T00:05:00;6.53;;;3.10;;
57443;SDS011;43289;52.962;6.196;2022-08-03T00:07:26;5.93;;;3.10;;
57443;SDS011;43289;52.962;6.196;2022-08-03T00:09:52;10.95;;;3.35;;
57443;SDS011;43289;52.962;6.196;2022-08-03T00:12:18;8.05;;;3.28;;
57443;SDS011;43289;52.962;6.196;2022-08-03T00:14:44;7.57;;;3.35;;
57443;SDS011;43289;52.962;6.196;2022-08-03T00:17:09;9.13;;;3.38;;
57443;SDS011;43289;52.962;6.196;2022-08-03T00:19:35;9.48;;;3.95;;
57443;SDS011;43289;52.962;6.196;2022-08-03T00:22:01;9.07;;;3.42;;
57443;SDS011;43289;52.962;6.196;2022-08-03T00:24:29;10.90;;;3.65;;
57443;SDS011;43289;52.962;6.196;2022-08-03T00:26:55;6.68;;;2.95;;
57443;SDS011;43289;52.962;6.196;2022-08-03T00:29:21;5.97;;;3.05;;
57443;SDS011;43289;52.962;6.196;2022-08-03T00:31:49;11.75;;;3.03;;
57443;SDS011;43289;52.962;6.196;2022-08-03T00:34:17;5.97;;;3.08;;
57443;SDS011;43289;52.962;6.196;2022-08-03T00:36:43;7.22;;;2.85;;
57443;SDS011;43289;52.962;6.196;2022-08-03T00:39:08;7.15;;;2.88;;
57443;SDS011;43289;52.962;6.196;2022-08-03T00:41:34;8.93;;;3.13;;
57443;SDS011;43289;52.962;6.196;2022-08-03T00:44:11;7.80;;;3.40;;
57443;SDS011;43289;52.962;6.196;2022-08-03T00:46:36;10.55;;;3.30;;
57443;SDS011;43289;52.962;6.196;2022-08-03T00:49:02;10.43;;;2.90;;
57443;SDS011;43289;52.962;6.196;2022-08-03T00:51:29;7.32;;;2.60;;
57443;SDS011;43289;52.962;6.196;2022-08-03T00:53:56;7.60;;;3.00;;
57443;SDS011;43289;52.962;6.196;2022-08-03T00:56:22;11.40;;;3.05;;
57443;SDS011;43289;52.962;6.196;2022-08-03T00:58:49;9.35;;;2.70;;
57443;SDS011;43289;52.962;6.196;2022-08-03T01:01:16;7.70;;;2.70;;
57443;SDS011;43289;52.962;6.196;2022-08-03T01:03:41;6.80;;;2.95;;
57443;SDS011;43289;52.962;6.196;2022-08-03T01:08:59;6.97;;;2.60;;
57443;SDS011;43289;52.962;6.196;2022-08-03T01:11:47;6.18;;;2.47;;
57443;SDS011;43289;52.962;6.196;2022-08-03T01:14:16;6.47;;;2.33;;
57443;SDS011;43289;52.962;6.196;2022-08-03T01:16:53;7.72;;;2.63;;
57443;SDS011;43289;52.962;6.196;2022-08-03T01:32:11;9.40;;;2.55;;
57443;SDS011;43289;52.962;6.196;2022-08-03T01:34:40;6.13;;;2.38;;
57443;SDS011;43289;52.962;6.196;2022-08-03T01:40:02;8.27;;;2.55;;
57443;SDS011;43289;52.962;6.196;2022-08-03T01:42:30;8.57;;;2.10;;
57443;SDS011;43289;52.962;6.196;2022-08-03T01:44:57;3.85;;;2.03;;
57443;SDS011;43289;52.962;6.196;2022-08-03T01:47:24;9.88;;;2.83;;
57443;SDS011;43289;52.962;6.196;2022-08-03T01:49:51;5.03;;;2.28;;
57443;SDS011;43289;52.962;6.196;2022-08-03T01:52:19;5.63;;;2.38;;
57443;SDS011;43289;52.962;6.196;2022-08-03T01:54:48;7.95;;;2.53;;
57443;SDS011;43289;52.962;6.196;2022-08-03T01:57:14;5.50;;;2.63;;
57443;SDS011;43289;52.962;6.196;2022-08-03T01:59:42;6.85;;;2.55;;
57443;SDS011;43289;52.962;6.196;2022-08-03T02:02:11;7.43;;;2.38;;
57443;SDS011;43289;52.962;6.196;2022-08-03T02:04:38;8.50;;;3.20;;
57443;SDS011;43289;52.962;6.196;2022-08-03T02:07:06;9.55;;;3.25;;
57443;SDS011;43289;52.962;6.196;2022-08-03T02:09:39;6.00;;;2.40;;
57443;SDS011;43289;52.962;6.196;2022-08-03T02:12:11;4.25;;;2.25;;
57443;SDS011;43289;52.962;6.196;2022-08-03T02:14:39;7.72;;;2.72;;
57443;SDS011;43289;52.962;6.196;2022-08-03T02:17:07;8.35;;;3.08;;
57443;SDS011;43289;52.962;6.196;2022-08-03T02:19:34;10.85;;;3.65;;
57443;SDS011;43289;52.962;6.196;2022-08-03T02:22:00;7.68;;;2.20;;
57443;SDS011;43289;52.962;6.196;2022-08-03T02:24:27;12.60;;;2.97;;
57443;SDS011;43289;52.962;6.196;2022-08-03T02:26:55;6.88;;;2.90;;
57443;SDS011;43289;52.962;6.196;2022-08-03T02:29:22;9.18;;;2.60;;
57443;SDS011;43289;52.962;6.196;2022-08-03T02:31:53;15.38;;;3.03;;
57443;SDS011;43289;52.962;6.196;2022-08-03T02:34:22;8.10;;;2.80;;
57443;SDS011;43289;52.962;6.196;2022-08-03T02:36:51;9.52;;;2.65;;
57443;SDS011;43289;52.962;6.196;2022-08-03T02:39:20;9.27;;;2.95;;
57443;SDS011;43289;52.962;6.196;2022-08-03T02:41:49;8.27;;;3.58;;
57443;SDS011;43289;52.962;6.196;2022-08-03T02:44:20;7.30;;;2.88;;
57443;SDS011;43289;52.962;6.196;2022-08-03T02:46:52;5.88;;;2.85;;
57443;SDS011;43289;52.962;6.196;2022-08-03T02:49:21;8.25;;;3.20;;
57443;SDS011;43289;52.962;6.196;2022-08-03T02:51:49;9.40;;;4.05;;
57443;SDS011;43289;52.962;6.196;2022-08-03T02:54:18;6.38;;;3.03;;
57443;SDS011;43289;52.962;6.196;2022-08-03T02:56:47;6.25;;;3.50;;
57443;SDS011;43289;52.962;6.196;2022-08-03T02:59:13;7.97;;;3.35;;
57443;SDS011;43289;52.962;6.196;2022-08-03T03:01:42;10.75;;;3.10;;
57443;SDS011;43289;52.962;6.196;2022-08-03T03:04:09;8.77;;;2.95;;
57443;SDS011;43289;52.962;6.196;2022-08-03T03:06:35;11.25;;;3.97;;
57443;SDS011;43289;52.962;6.196;2022-08-03T03:09:02;7.15;;;3.53;;
57443;SDS011;43289;52.962;6.196;2022-08-03T03:11:28;5.28;;;2.88;;
57443;SDS011;43289;52.962;6.196;2022-08-03T03:13:55;7.15;;;3.10;;
57443;SDS011;43289;52.962;6.196;2022-08-03T03:16:21;7.47;;;3.08;;
57443;SDS011;43289;52.962;6.196;2022-08-03T03:18:50;8.85;;;3.78;;
57443;SDS011;43289;52.962;6.196;2022-08-03T03:21:17;11.25;;;3.45;;
57443;SDS011;43289;52.962;6.196;2022-08-03T03:23:44;10.70;;;4.10;;
57443;SDS011;43289;52.962;6.196;2022-08-03T03:26:11;9.60;;;3.17;;
57443;SDS011;43289;52.962;6.196;2022-08-03T03:31:08;8.55;;;2.80;;
57443;SDS011;43289;52.962;6.196;2022-08-03T03:33:35;8.70;;;3.20;;
57443;SDS011;43289;52.962;6.196;2022-08-03T03:36:02;8.07;;;3.47;;
57443;SDS011;43289;52.962;6.196;2022-08-03T03:38:28;8.02;;;3.53;;
57443;SDS011;43289;52.962;6.196;2022-08-03T03:40:56;8.18;;;3.38;;
57443;SDS011;43289;52.962;6.196;2022-08-03T03:43:22;12.50;;;3.42;;
57443;SDS011;43289;52.962;6.196;2022-08-03T03:45:53;11.25;;;3.78;;
57443;SDS011;43289;52.962;6.196;2022-08-03T03:48:19;7.28;;;2.92;;
57443;SDS011;43289;52.962;6.196;2022-08-03T03:50:45;8.73;;;3.25;;
57443;SDS011;43289;52.962;6.196;2022-08-03T03:53:13;12.27;;;3.80;;
57443;SDS011;43289;52.962;6.196;2022-08-03T03:55:39;5.82;;;3.00;;
57443;SDS011;43289;52.962;6.196;2022-08-03T03:58:05;9.68;;;3.28;;
57443;SDS011;43289;52.962;6.196;2022-08-03T04:00:31;9.02;;;2.90;;
57443;SDS011;43289;52.962;6.196;2022-08-03T04:02:57;10.38;;;3.70;;
57443;SDS011;43289;52.962;6.196;2022-08-03T04:05:23;7.20;;;2.97;;
57443;SDS011;43289;52.962;6.196;2022-08-03T04:08:08;10.52;;;4.78;;
57443;SDS011;43289;52.962;6.196;2022-08-03T04:11:57;6.78;;;2.90;;
57443;SDS011;43289;52.962;6.196;2022-08-03T04:13:56;9.10;;;3.55;;
57443;SDS011;43289;52.962;6.196;2022-08-03T04:16:44;8.82;;;3.53;;
57443;SDS011;43289;52.962;6.196;2022-08-03T04:19:14;10.88;;;3.97;;
57443;SDS011;43289;52.962;6.196;2022-08-03T04:21:45;10.07;;;3.50;;
57443;SDS011;43289;52.962;6.196;2022-08-03T04:24:12;9.60;;;3.03;;
57443;SDS011;43289;52.962;6.196;2022-08-03T04:26:40;6.63;;;3.00;;
57443;SDS011;43289;52.962;6.196;2022-08-03T04:29:09;11.38;;;3.63;;
57443;SDS011;43289;52.962;6.196;2022-08-03T04:31:36;9.23;;;3.65;;
57443;SDS011;43289;52.962;6.196;2022-08-03T04:34:03;13.85;;;3.63;;
57443;SDS011;43289;52.962;6.196;2022-08-03T04:36:30;6.93;;;3.22;;
57443;SDS011;43289;52.962;6.196;2022-08-03T04:39:02;5.35;;;2.85;;
57443;SDS011;43289;52.962;6.196;2022-08-03T04:41:34;8.30;;;3.42;;
57443;SDS011;43289;52.962;6.196;2022-08-03T04:44:00;7.03;;;3.22;;
57443;SDS011;43289;52.962;6.196;2022-08-03T04:46:30;8.43;;;3.03;;
57443;SDS011;43289;52.962;6.196;2022-08-03T04:49:00;9.70;;;3.67;;
57443;SDS011;43289;52.962;6.196;2022-08-03T04:51:27;11.13;;;3.63;;
57443;SDS011;43289;52.962;6.196;2022-08-03T04:53:53;8.98;;;4.00;;
57443;SDS011;43289;52.962;6.196;2022-08-03T04:56:19;8.05;;;3.53;;
57443;SDS011;43289;52.962;6.196;2022-08-03T04:58:52;6.68;;;3.08;;
57443;SDS011;43289;52.962;6.196;2022-08-03T05:01:18;7.50;;;3.17;;
57443;SDS011;43289;52.962;6.196;2022-08-03T05:03:45;9.27;;;3.08;;
57443;SDS011;43289;52.962;6.196;2022-08-03T05:06:11;8.52;;;3.22;;
57443;SDS011;43289;52.962;6.196;2022-08-03T05:08:36;8.90;;;3.22;;
57443;SDS011;43289;52.962;6.196;2022-08-03T05:11:02;8.55;;;3.83;;
57443;SDS011;43289;52.962;6.196;2022-08-03T05:13:28;11.65;;;4.43;;
57443;SDS011;43289;52.962;6.196;2022-08-03T05:15:54;9.63;;;4.03;;
57443;SDS011;43289;52.962;6.196;2022-08-03T05:18:19;11.48;;;3.80;;
57443;SDS011;43289;52.962;6.196;2022-08-03T05:20:45;5.00;;;2.88;;
57443;SDS011;43289;52.962;6.196;2022-08-03T05:23:11;11.70;;;4.63;;
57443;SDS011;43289;52.962;6.196;2022-08-03T05:25:36;10.13;;;3.50;;
57443;SDS011;43289;52.962;6.196;2022-08-03T05:28:02;8.95;;;4.10;;
57443;SDS011;43289;52.962;6.196;2022-08-03T05:30:28;10.05;;;4.18;;
57443;SDS011;43289;52.962;6.196;2022-08-03T05:32:53;15.13;;;4.68;;
57443;SDS011;43289;52.962;6.196;2022-08-03T05:35:19;6.97;;;3.65;;
57443;SDS011;43289;52.962;6.196;2022-08-03T05:37:45;11.90;;;4.18;;
57443;SDS011;43289;52.962;6.196;2022-08-03T05:40:11;8.35;;;3.42;;
57443;SDS011;43289;52.962;6.196;2022-08-03T05:42:37;6.50;;;3.50;;
57443;SDS011;43289;52.962;6.196;2022-08-03T05:45:03;11.07;;;4.15;;
57443;SDS011;43289;52.962;6.196;2022-08-03T05:47:39;9.18;;;3.60;;
57443;SDS011;43289;52.962;6.196;2022-08-03T05:50:05;7.82;;;3.72;;
57443;SDS011;43289;52.962;6.196;2022-08-03T05:52:31;6.97;;;3.58;;
57443;SDS011;43289;52.962;6.196;2022-08-03T05:54:57;10.35;;;3.78;;
57443;SDS011;43289;52.962;6.196;2022-08-03T05:57:23;8.07;;;3.75;;
57443;SDS011;43289;52.962;6.196;2022-08-03T05:59:50;8.90;;;3.53;;
57443;SDS011;43289;52.962;6.196;2022-08-03T06:02:15;12.18;;;3.72;;
57443;SDS011;43289;52.962;6.196;2022-08-03T06:04:41;10.07;;;3.75;;
57443;SDS011;43289;52.962;6.196;2022-08-03T06:07:07;9.40;;;3.50;;
57443;SDS011;43289;52.962;6.196;2022-08-03T06:09:33;11.70;;;4.15;;
57443;SDS011;43289;52.962;6.196;2022-08-03T06:11:58;10.63;;;4.05;;
57443;SDS011;43289;52.962;6.196;2022-08-03T06:14:26;14.82;;;3.80;;
57443;SDS011;43289;52.962;6.196;2022-08-03T06:16:52;11.60;;;3.97;;
57443;SDS011;43289;52.962;6.196;2022-08-03T06:19:18;8.68;;;3.53;;
57443;SDS011;43289;52.962;6.196;2022-08-03T06:21:44;9.75;;;3.83;;
57443;SDS011;43289;52.962;6.196;2022-08-03T06:24:10;11.85;;;3.90;;
57443;SDS011;43289;52.962;6.196;2022-08-03T06:26:36;7.93;;;3.53;;
57443;SDS011;43289;52.962;6.196;2022-08-03T06:29:01;15.65;;;3.65;;
57443;SDS011;43289;52.962;6.196;2022-08-03T06:31:27;16.33;;;4.60;;
57443;SDS011;43289;52.962;6.196;2022-08-03T06:33:54;9.07;;;3.88;;
57443;SDS011;43289;52.962;6.196;2022-08-03T06:36:20;15.05;;;4.70;;
57443;SDS011;43289;52.962;6.196;2022-08-03T06:38:46;14.07;;;4.97;;
57443;SDS011;43289;52.962;6.196;2022-08-03T06:41:12;8.02;;;3.08;;
57443;SDS011;43289;52.962;6.196;2022-08-03T06:43:55;14.95;;;5.68;;
57443;SDS011;43289;52.962;6.196;2022-08-03T06:46:21;13.80;;;4.60;;
57443;SDS011;43289;52.962;6.196;2022-08-03T06:48:46;15.23;;;4.53;;
57443;SDS011;43289;52.962;6.196;2022-08-03T06:51:19;14.27;;;4.55;;
57443;SDS011;43289;52.962;6.196;2022-08-03T06:53:45;13.93;;;4.95;;
57443;SDS011;43289;52.962;6.196;2022-08-03T06:56:11;14.07;;;4.50;;
57443;SDS011;43289;52.962;6.196;2022-08-03T06:58:39;12.27;;;5.05;;
57443;SDS011;43289;52.962;6.196;2022-08-03T07:01:05;13.63;;;4.43;;
57443;SDS011;43289;52.962;6.196;2022-08-03T07:03:31;9.65;;;4.40;;
57443;SDS011;43289;52.962;6.196;2022-08-03T07:05:57;13.43;;;4.55;;
57443;SDS011;43289;52.962;6.196;2022-08-03T07:08:24;12.00;;;4.65;;
57443;SDS011;43289;52.962;6.196;2022-08-03T07:10:50;11.32;;;4.25;;
57443;SDS011;43289;52.962;6.196;2022-08-03T07:13:16;15.77;;;4.53;;
57443;SDS011;43289;52.962;6.196;2022-08-03T07:15:42;11.55;;;5.13;;
57443;SDS011;43289;52.962;6.196;2022-08-03T07:18:08;11.10;;;4.03;;
57443;SDS011;43289;52.962;6.196;2022-08-03T07:20:34;13.82;;;4.78;;
57443;SDS011;43289;52.962;6.196;2022-08-03T07:23:00;13.30;;;4.38;;
57443;SDS011;43289;52.962;6.196;2022-08-03T07:25:27;13.68;;;4.70;;
57443;SDS011;43289;52.962;6.196;2022-08-03T07:27:53;11.75;;;4.75;;
57443;SDS011;43289;52.962;6.196;2022-08-03T07:30:19;8.98;;;3.70;;
57443;SDS011;43289;52.962;6.196;2022-08-03T07:32:44;12.38;;;4.20;;
57443;SDS011;43289;52.962;6.196;2022-08-03T07:35:10;8.63;;;3.90;;
57443;SDS011;43289;52.962;6.196;2022-08-03T07:37:36;13.43;;;4.25;;
57443;SDS011;43289;52.962;6.196;2022-08-03T07:40:03;10.32;;;4.22;;
57443;SDS011;43289;52.962;6.196;2022-08-03T07:42:29;12.88;;;4.35;;
57443;SDS011;43289;52.962;6.196;2022-08-03T07:45:01;13.10;;;4.82;;
57443;SDS011;43289;52.962;6.196;2022-08-03T07:47:30;12.73;;;5.35;;
57443;SDS011;43289;52.962;6.196;2022-08-03T07:49:56;13.88;;;4.47;;
57443;SDS011;43289;52.962;6.196;2022-08-03T07:52:22;13.10;;;4.40;;
57443;SDS011;43289;52.962;6.196;2022-08-03T07:55:07;14.87;;;5.00;;
57443;SDS011;43289;52.962;6.196;2022-08-03T07:57:33;14.07;;;4.88;;
57443;SDS011;43289;52.962;6.196;2022-08-03T08:00:00;11.13;;;5.13;;
57443;SDS011;43289;52.962;6.196;2022-08-03T08:02:25;11.18;;;4.45;;
57443;SDS011;43289;52.962;6.196;2022-08-03T08:04:51;9.07;;;4.65;;
57443;SDS011;43289;52.962;6.196;2022-08-03T08:07:17;12.88;;;4.65;;
57443;SDS011;43289;52.962;6.196;2022-08-03T08:09:43;11.00;;;4.10;;
57443;SDS011;43289;52.962;6.196;2022-08-03T08:12:10;12.65;;;5.10;;
57443;SDS011;43289;52.962;6.196;2022-08-03T08:14:37;14.30;;;4.75;;
57443;SDS011;43289;52.962;6.196;2022-08-03T08:17:03;17.27;;;5.50;;
57443;SDS011;43289;52.962;6.196;2022-08-03T08:19:29;12.85;;;5.85;;
57443;SDS011;43289;52.962;6.196;2022-08-03T08:21:55;13.52;;;5.30;;
57443;SDS011;43289;52.962;6.196;2022-08-03T08:24:21;10.30;;;5.47;;
57443;SDS011;43289;52.962;6.196;2022-08-03T08:26:47;16.05;;;5.60;;
57443;SDS011;43289;52.962;6.196;2022-08-03T08:29:13;11.60;;;4.55;;
57443;SDS011;43289;52.962;6.196;2022-08-03T08:31:51;11.75;;;5.55;;
57443;SDS011;43289;52.962;6.196;2022-08-03T08:34:17;14.10;;;5.32;;
57443;SDS011;43289;52.962;6.196;2022-08-03T08:36:43;12.77;;;4.43;;
57443;SDS011;43289;52.962;6.196;2022-08-03T08:39:10;11.60;;;4.53;;
57443;SDS011;43289;52.962;6.196;2022-08-03T08:41:36;11.93;;;5.28;;
57443;SDS011;43289;52.962;6.196;2022-08-03T08:44:02;10.10;;;4.97;;
57443;SDS011;43289;52.962;6.196;2022-08-03T08:49:19;11.55;;;4.53;;
57443;SDS011;43289;52.962;6.196;2022-08-03T08:51:48;14.23;;;5.38;;
57443;SDS011;43289;52.962;6.196;2022-08-03T08:54:17;10.52;;;4.55;;
57443;SDS011;43289;52.962;6.196;2022-08-03T08:56:45;11.90;;;5.38;;
57443;SDS011;43289;52.962;6.196;2022-08-03T08:59:12;9.98;;;4.22;;
57443;SDS011;43289;52.962;6.196;2022-08-03T09:01:38;14.40;;;4.88;;
57443;SDS011;43289;52.962;6.196;2022-08-03T09:04:09;17.63;;;4.78;;
57443;SDS011;43289;52.962;6.196;2022-08-03T09:06:35;8.27;;;4.05;;
57443;SDS011;43289;52.962;6.196;2022-08-03T09:09:01;10.90;;;4.90;;
57443;SDS011;43289;52.962;6.196;2022-08-03T09:11:27;11.45;;;5.47;;
57443;SDS011;43289;52.962;6.196;2022-08-03T09:13:52;13.02;;;5.15;;
57443;SDS011;43289;52.962;6.196;2022-08-03T09:16:19;13.13;;;5.00;;
57443;SDS011;43289;52.962;6.196;2022-08-03T09:18:52;10.27;;;5.07;;
57443;SDS011;43289;52.962;6.196;2022-08-03T09:21:34;10.77;;;4.70;;
57443;SDS011;43289;52.962;6.196;2022-08-03T09:24:01;12.15;;;5.80;;
57443;SDS011;43289;52.962;6.196;2022-08-03T09:26:28;11.07;;;5.22;;
57443;SDS011;43289;52.962;6.196;2022-08-03T09:28:58;11.70;;;5.13;;
57443;SDS011;43289;52.962;6.196;2022-08-03T09:31:29;14.75;;;5.32;;
57443;SDS011;43289;52.962;6.196;2022-08-03T09:33:55;9.23;;;5.28;;
57443;SDS011;43289;52.962;6.196;2022-08-03T09:36:35;15.73;;;6.60;;
57443;SDS011;43289;52.962;6.196;2022-08-03T09:39:03;13.77;;;5.65;;
57443;SDS011;43289;52.962;6.196;2022-08-03T09:41:35;13.00;;;5.53;;
57443;SDS011;43289;52.962;6.196;2022-08-03T09:44:02;14.80;;;5.30;;
57443;SDS011;43289;52.962;6.196;2022-08-03T09:49:19;13.65;;;5.18;;
57443;SDS011;43289;52.962;6.196;2022-08-03T09:51:45;13.45;;;5.47;;
57443;SDS011;43289;52.962;6.196;2022-08-03T09:54:11;12.88;;;5.75;;
57443;SDS011;43289;52.962;6.196;2022-08-03T09:56:50;12.23;;;5.40;;
57443;SDS011;43289;52.962;6.196;2022-08-03T09:59:27;13.77;;;4.97;;
57443;SDS011;43289;52.962;6.196;2022-08-03T10:01:54;13.10;;;5.97;;
57443;SDS011;43289;52.962;6.196;2022-08-03T10:04:21;12.15;;;5.82;;
57443;SDS011;43289;52.962;6.196;2022-08-03T10:07:01;11.65;;;5.35;;
57443;SDS011;43289;52.962;6.196;2022-08-03T10:09:28;13.05;;;5.35;;
57443;SDS011;43289;52.962;6.196;2022-08-03T10:11:54;12.63;;;6.20;;
57443;SDS011;43289;52.962;6.196;2022-08-03T10:14:20;16.15;;;6.38;;
57443;SDS011;43289;52.962;6.196;2022-08-03T10:16:47;16.70;;;6.00;;
57443;SDS011;43289;52.962;6.196;2022-08-03T10:19:14;13.43;;;5.40;;
57443;SDS011;43289;52.962;6.196;2022-08-03T10:21:54;14.63;;;6.38;;
57443;SDS011;43289;52.962;6.196;2022-08-03T10:24:25;12.50;;;5.68;;
57443;SDS011;43289;52.962;6.196;2022-08-03T10:26:56;15.32;;;6.38;;
57443;SDS011;43289;52.962;6.196;2022-08-03T10:29:31;11.90;;;6.40;;
57443;SDS011;43289;52.962;6.196;2022-08-03T10:32:02;12.93;;;6.43;;
57443;SDS011;43289;52.962;6.196;2022-08-03T10:34:33;12.15;;;6.28;;
57443;SDS011;43289;52.962;6.196;2022-08-03T10:37:05;13.10;;;5.43;;
57443;SDS011;43289;52.962;6.196;2022-08-03T10:39:35;17.23;;;6.15;;
57443;SDS011;43289;52.962;6.196;2022-08-03T10:42:01;13.48;;;4.90;;
57443;SDS011;43289;52.962;6.196;2022-08-03T10:44:32;11.57;;;5.80;;
57443;SDS011;43289;52.962;6.196;2022-08-03T10:47:04;11.07;;;6.15;;
57443;SDS011;43289;52.962;6.196;2022-08-03T10:49:30;13.63;;;5.10;;
57443;SDS011;43289;52.962;6.196;2022-08-03T10:51:57;12.13;;;5.22;;
57443;SDS011;43289;52.962;6.196;2022-08-03T10:57:46;16.65;;;6.15;;
57443;SDS011;43289;52.962;6.196;2022-08-03T11:00:22;14.30;;;5.72;;
57443;SDS011;43289;52.962;6.196;2022-08-03T11:05:30;8.70;;;4.43;;
57443;SDS011;43289;52.962;6.196;2022-08-03T11:08:16;13.05;;;5.88;;
57443;SDS011;43289;52.962;6.196;2022-08-03T11:10:47;8.52;;;4.20;;
57443;SDS011;43289;52.962;6.196;2022-08-03T11:13:14;12.07;;;5.20;;
57443;SDS011;43289;52.962;6.196;2022-08-03T11:15:43;19.20;;;6.03;;
57443;SDS011;43289;52.962;6.196;2022-08-03T11:18:11;14.95;;;5.05;;
57443;SDS011;43289;52.962;6.196;2022-08-03T11:20:48;9.30;;;5.07;;
57443;SDS011;43289;52.962;6.196;2022-08-03T11:23:15;14.57;;;5.75;;
57443;SDS011;43289;52.962;6.196;2022-08-03T11:28:26;15.20;;;5.35;;
57443;SDS011;43289;52.962;6.196;2022-08-03T11:30:53;12.93;;;5.68;;
57443;SDS011;43289;52.962;6.196;2022-08-03T11:33:28;15.88;;;5.40;;
57443;SDS011;43289;52.962;6.196;2022-08-03T11:35:59;10.77;;;5.15;;
57443;SDS011;43289;52.962;6.196;2022-08-03T11:38:25;17.10;;;6.90;;
57443;SDS011;43289;52.962;6.196;2022-08-03T11:40:51;18.10;;;7.78;;
57443;SDS011;43289;52.962;6.196;2022-08-03T11:45:58;13.80;;;7.25;;
57443;SDS011;43289;52.962;6.196;2022-08-03T11:48:32;15.63;;;8.02;;
57443;SDS011;43289;52.962;6.196;2022-08-03T11:50:59;17.80;;;8.05;;
57443;SDS011;43289;52.962;6.196;2022-08-03T11:53:25;18.25;;;7.85;;
57443;SDS011;43289;52.962;6.196;2022-08-03T11:55:52;15.43;;;7.22;;
57443;SDS011;43289;52.962;6.196;2022-08-03T11:58:18;17.30;;;7.85;;
57443;SDS011;43289;52.962;6.196;2022-08-03T12:00:45;16.45;;;7.80;;
57443;SDS011;43289;52.962;6.196;2022-08-03T12:03:12;18.65;;;7.00;;
57443;SDS011;43289;52.962;6.196;2022-08-03T12:05:42;19.67;;;6.80;;
57443;SDS011;43289;52.962;6.196;2022-08-03T12:08:09;16.00;;;7.63;;
57443;SDS011;43289;52.962;6.196;2022-08-03T12:10:36;15.65;;;5.82;;
57443;SDS011;43289;52.962;6.196;2022-08-03T12:13:03;12.90;;;6.65;;
57443;SDS011;43289;52.962;6.196;2022-08-03T12:15:33;13.85;;;6.15;;
57443;SDS011;43289;52.962;6.196;2022-08-03T12:17:59;16.23;;;6.30;;
57443;SDS011;43289;52.962;6.196;2022-08-03T12:20:26;14.13;;;6.82;;
57443;SDS011;43289;52.962;6.196;2022-08-03T12:22:53;14.93;;;6.78;;
57443;SDS011;43289;52.962;6.196;2022-08-03T12:25:20;20.40;;;7.75;;
57443;SDS011;43289;52.962;6.196;2022-08-03T12:27:46;19.30;;;7.40;;
57443;SDS011;43289;52.962;6.196;2022-08-03T12:30:12;13.75;;;6.05;;
57443;SDS011;43289;52.962;6.196;2022-08-03T12:32:41;13.73;;;6.88;;
57443;SDS011;43289;52.962;6.196;2022-08-03T12:35:07;15.25;;;6.15;;
57443;SDS011;43289;52.962;6.196;2022-08-03T12:37:34;12.52;;;6.47;;
57443;SDS011;43289;52.962;6.196;2022-08-03T12:40:00;12.52;;;6.85;;
57443;SDS011;43289;52.962;6.196;2022-08-03T12:42:29;9.95;;;5.63;;
57443;SDS011;43289;52.962;6.196;2022-08-03T12:44:55;10.70;;;6.43;;
57443;SDS011;43289;52.962;6.196;2022-08-03T12:47:21;11.27;;;6.95;;
57443;SDS011;43289;52.962;6.196;2022-08-03T12:49:51;15.50;;;6.85;;
57443;SDS011;43289;52.962;6.196;2022-08-03T12:52:30;13.85;;;6.10;;
57443;SDS011;43289;52.962;6.196;2022-08-03T12:55:07;12.02;;;6.68;;
57443;SDS011;43289;52.962;6.196;2022-08-03T12:57:43;17.48;;;7.38;;
57443;SDS011;43289;52.962;6.196;2022-08-03T13:00:10;14.82;;;6.05;;
57443;SDS011;43289;52.962;6.196;2022-08-03T13:02:37;11.55;;;6.57;;
57443;SDS011;43289;52.962;6.196;2022-08-03T13:05:08;15.32;;;6.35;;
57443;SDS011;43289;52.962;6.196;2022-08-03T13:07:42;18.83;;;7.68;;
57443;SDS011;43289;52.962;6.196;2022-08-03T13:10:08;13.20;;;6.40;;
57443;SDS011;43289;52.962;6.196;2022-08-03T13:12:45;16.83;;;5.45;;
57443;SDS011;43289;52.962;6.196;2022-08-03T13:15:11;11.82;;;5.47;;
57443;SDS011;43289;52.962;6.196;2022-08-03T13:17:38;13.02;;;5.25;;
57443;SDS011;43289;52.962;6.196;2022-08-03T13:20:04;12.48;;;5.18;;
57443;SDS011;43289;52.962;6.196;2022-08-03T13:22:31;9.77;;;4.43;;
57443;SDS011;43289;52.962;6.196;2022-08-03T13:24:57;9.15;;;4.85;;
57443;SDS011;43289;52.962;6.196;2022-08-03T13:27:25;14.02;;;6.20;;
57443;SDS011;43289;52.962;6.196;2022-08-03T13:29:51;10.73;;;5.20;;
57443;SDS011;43289;52.962;6.196;2022-08-03T13:32:18;18.42;;;6.30;;
57443;SDS011;43289;52.962;6.196;2022-08-03T13:34:44;11.75;;;5.13;;
57443;SDS011;43289;52.962;6.196;2022-08-03T13:37:10;11.10;;;5.25;;
57443;SDS011;43289;52.962;6.196;2022-08-03T13:39:36;10.27;;;4.50;;
57443;SDS011;43289;52.962;6.196;2022-08-03T13:42:02;12.43;;;4.97;;
57443;SDS011;43289;52.962;6.196;2022-08-03T13:44:29;12.10;;;5.90;;
57443;SDS011;43289;52.962;6.196;2022-08-03T13:46:55;10.73;;;4.93;;
57443;SDS011;43289;52.962;6.196;2022-08-03T13:49:26;12.48;;;5.13;;
57443;SDS011;43289;52.962;6.196;2022-08-03T13:51:54;10.40;;;4.82;;
57443;SDS011;43289;52.962;6.196;2022-08-03T13:54:19;13.30;;;5.82;;
57443;SDS011;43289;52.962;6.196;2022-08-03T13:56:45;11.45;;;4.80;;
57443;SDS011;43289;52.962;6.196;2022-08-03T13:59:17;10.07;;;4.93;;
57443;SDS011;43289;52.962;6.196;2022-08-03T14:01:44;9.18;;;4.65;;
57443;SDS011;43289;52.962;6.196;2022-08-03T14:04:10;12.80;;;5.45;;
57443;SDS011;43289;52.962;6.196;2022-08-03T14:06:36;14.40;;;5.25;;
57443;SDS011;43289;52.962;6.196;2022-08-03T14:09:02;10.30;;;5.10;;
57443;SDS011;43289;52.962;6.196;2022-08-03T14:11:28;9.80;;;5.20;;
57443;SDS011;43289;52.962;6.196;2022-08-03T14:13:56;13.68;;;6.43;;
57443;SDS011;43289;52.962;6.196;2022-08-03T14:16:22;13.15;;;6.13;;
57443;SDS011;43289;52.962;6.196;2022-08-03T14:18:48;9.25;;;5.32;;
57443;SDS011;43289;52.962;6.196;2022-08-03T14:21:28;10.48;;;5.15;;
57443;SDS011;43289;52.962;6.196;2022-08-03T14:23:54;10.55;;;4.93;;
57443;SDS011;43289;52.962;6.196;2022-08-03T14:26:21;10.32;;;5.25;;
57443;SDS011;43289;52.962;6.196;2022-08-03T14:28:47;11.73;;;5.50;;
57443;SDS011;43289;52.962;6.196;2022-08-03T14:31:13;16.02;;;5.72;;
57443;SDS011;43289;52.962;6.196;2022-08-03T14:33:40;11.23;;;5.55;;
57443;SDS011;43289;52.962;6.196;2022-08-03T14:36:06;12.85;;;5.78;;
57443;SDS011;43289;52.962;6.196;2022-08-03T14:41:22;12.63;;;5.70;;
57443;SDS011;43289;52.962;6.196;2022-08-03T14:43:51;9.63;;;5.20;;
57443;SDS011;43289;52.962;6.196;2022-08-03T14:46:17;12.50;;;5.75;;
57443;SDS011;43289;52.962;6.196;2022-08-03T14:48:43;14.32;;;5.65;;
57443;SDS011;43289;52.962;6.196;2022-08-03T14:51:09;10.98;;;5.28;;
57443;SDS011;43289;52.962;6.196;2022-08-03T14:53:35;9.38;;;4.80;;
57443;SDS011;43289;52.962;6.196;2022-08-03T14:56:01;11.90;;;5.07;;
57443;SDS011;43289;52.962;6.196;2022-08-03T15:00:58;16.10;;;5.47;;
57443;SDS011;43289;52.962;6.196;2022-08-03T15:03:25;12.30;;;4.57;;
57443;SDS011;43289;52.962;6.196;2022-08-03T15:05:52;9.93;;;4.75;;
57443;SDS011;43289;52.962;6.196;2022-08-03T15:08:18;8.38;;;5.05;;
57443;SDS011;43289;52.962;6.196;2022-08-03T15:10:44;8.63;;;4.60;;
57443;SDS011;43289;52.962;6.196;2022-08-03T15:13:10;12.18;;;4.65;;
57443;SDS011;43289;52.962;6.196;2022-08-03T15:15:36;8.07;;;4.55;;
57443;SDS011;43289;52.962;6.196;2022-08-03T15:18:02;10.07;;;4.60;;
57443;SDS011;43289;52.962;6.196;2022-08-03T15:20:28;9.25;;;4.70;;
57443;SDS011;43289;52.962;6.196;2022-08-03T15:22:54;8.30;;;4.65;;
57443;SDS011;43289;52.962;6.196;2022-08-03T15:25:20;12.50;;;5.03;;
57443;SDS011;43289;52.962;6.196;2022-08-03T15:27:46;10.40;;;4.90;;